PWSweather.com
Personal Weather Stations
Station Observations
270882
Flassian, LimouxFR 11300

FlassianLimouxFR 11300

Lat: 43.071798, Lon: 2.217292

Elevation: 165

Station Type: Oregon WMR 200

http://www.meteolimoux.fr

Latest ConditionsUpdated 3:32:13 AM GMT+01:01 Saturday, Feb 24, 2018
Currently Today's Max Today's Min Today's Average
Temperature 26.6°F-3.0°C 28.2°F-2.1°C 26.6°F-3.0°C 27.5°F-2.5°C
Dew Point 18.9°F-7.3°C 19.6°F-6.9°C 18.1°F-7.7°C 18.8°F-7.3°C
Winds Calm Calm 1.8 mph WSW2.9 kmh WSW - 0.1 mph 0.2 kmh
Wind Gusts -- 3.1 mph5.0 kmh - -
Humidity 72% 73% 66% 70%
Pressure 29.81 in1009.5 mb 29.81 in1009.5 mb 29.78 in1008.5 mb -
Hour Temp Dew Point Humidity Winds Wind Gusts Pressure Precip Precip Rate Daily Precip Total
03:32 AM 26.6°F-3.0°C 18.9°F-7.3°C 72% Calm Calm -- 29.81 in1009.5 mb - 0.00 in0.0 mm 0.00 in0.0 mm
03:27 AM 26.8°F-2.9°C 19.0°F-7.2°C 72% Calm Calm -- 29.78 in1008.5 mb - 0.00 in0.0 mm 0.00 in0.0 mm
03:22 AM 27.0°F-2.8°C 19.2°F-7.1°C 72% Calm Calm -- 29.78 in1008.5 mb - 0.00 in0.0 mm 0.00 in0.0 mm
03:17 AM 27.0°F-2.8°C 19.2°F-7.1°C 72% Calm Calm -- 29.78 in1008.5 mb - 0.00 in0.0 mm 0.00 in0.0 mm
03:12 AM 27.1°F-2.7°C 19.4°F-7.0°C 72% 0.4 mph WSW0.6 kmh WSW 1.6 mph2.6 kmh 29.78 in1008.5 mb - 0.00 in0.0 mm 0.00 in0.0 mm
03:07 AM 27.1°F-2.7°C 19.4°F-7.0°C 72% Calm Calm -- 29.78 in1008.5 mb - 0.00 in0.0 mm 0.00 in0.0 mm
03:02 AM 27.1°F-2.7°C 19.4°F-7.0°C 72% 0.2 mph SW0.3 kmh SW 1.3 mph2.1 kmh 29.78 in1008.5 mb - 0.00 in0.0 mm 0.00 in0.0 mm
02:57 AM 27.1°F-2.7°C 19.4°F-7.0°C 72% 1.8 mph WSW2.9 kmh WSW 3.1 mph5.0 kmh 29.78 in1008.5 mb - 0.00 in0.0 mm 0.00 in0.0 mm
02:52 AM 27.1°F-2.7°C 19.6°F-6.9°C 73% 0.2 mph WSW0.3 kmh WSW 2.7 mph4.3 kmh 29.78 in1008.5 mb - 0.00 in0.0 mm 0.00 in0.0 mm
02:47 AM 27.0°F-2.8°C 19.2°F-7.1°C 72% Calm Calm -- 29.78 in1008.5 mb - 0.00 in0.0 mm 0.00 in0.0 mm
02:42 AM 27.0°F-2.8°C 18.9°F-7.3°C 71% Calm Calm -- 29.78 in1008.5 mb - 0.00 in0.0 mm 0.00 in0.0 mm
02:37 AM 27.0°F-2.8°C 18.9°F-7.3°C 71% Calm Calm -- 29.78 in1008.5 mb - 0.00 in0.0 mm 0.00 in0.0 mm
02:32 AM 27.0°F-2.8°C 18.5°F-7.5°C 70% Calm Calm -- 29.78 in1008.5 mb - 0.00 in0.0 mm 0.00 in0.0 mm
02:27 AM 27.0°F-2.8°C 18.5°F-7.5°C 70% Calm Calm -- 29.81 in1009.5 mb - 0.00 in0.0 mm 0.00 in0.0 mm
02:22 AM 27.0°F-2.8°C 18.1°F-7.7°C 69% Calm Calm -- 29.81 in1009.5 mb - 0.00 in0.0 mm 0.00 in0.0 mm
02:17 AM 27.0°F-2.8°C 18.1°F-7.7°C 69% Calm Calm -- 29.81 in1009.5 mb - 0.00 in0.0 mm 0.00 in0.0 mm
02:12 AM 27.0°F-2.8°C 18.1°F-7.7°C 69% Calm Calm -- 29.81 in1009.5 mb - 0.00 in0.0 mm 0.00 in0.0 mm
02:07 AM 27.1°F-2.7°C 18.3°F-7.6°C 69% Calm Calm -- 29.81 in1009.5 mb - 0.00 in0.0 mm 0.00 in0.0 mm
02:02 AM 27.3°F-2.6°C 18.5°F-7.5°C 69% Calm Calm -- 29.81 in1009.5 mb - 0.00 in0.0 mm 0.00 in0.0 mm
01:57 AM 27.5°F-2.5°C 19.0°F-7.2°C 70% Calm Calm -- 29.81 in1009.5 mb - 0.00 in0.0 mm 0.00 in0.0 mm
01:52 AM 27.5°F-2.5°C 19.0°F-7.2°C 70% Calm Calm -- 29.81 in1009.5 mb - 0.00 in0.0 mm 0.00 in0.0 mm
01:47 AM 27.7°F-2.4°C 18.9°F-7.3°C 69% Calm Calm -- 29.81 in1009.5 mb - 0.00 in0.0 mm 0.00 in0.0 mm
01:42 AM 27.7°F-2.4°C 19.2°F-7.1°C 70% Calm Calm -- 29.81 in1009.5 mb - 0.00 in0.0 mm 0.00 in0.0 mm
01:37 AM 27.9°F-2.3°C 19.4°F-7.0°C 70% Calm Calm -- 29.81 in1009.5 mb - 0.00 in0.0 mm 0.00 in0.0 mm
01:32 AM 27.9°F-2.3°C 19.4°F-7.0°C 70% Calm Calm -- 29.81 in1009.5 mb - 0.00 in0.0 mm 0.00 in0.0 mm
01:27 AM 27.9°F-2.3°C 19.4°F-7.0°C 70% Calm Calm -- 29.81 in1009.5 mb - 0.00 in0.0 mm 0.00 in0.0 mm
01:22 AM 27.7°F-2.4°C 18.9°F-7.3°C 69% Calm Calm -- 29.81 in1009.5 mb - 0.00 in0.0 mm 0.00 in0.0 mm
01:17 AM 27.5°F-2.5°C 18.7°F-7.4°C 69% Calm Calm -- 29.81 in1009.5 mb - 0.00 in0.0 mm 0.00 in0.0 mm
01:12 AM 27.5°F-2.5°C 18.7°F-7.4°C 69% Calm Calm -- 29.81 in1009.5 mb - 0.00 in0.0 mm 0.00 in0.0 mm
01:07 AM 27.7°F-2.4°C 18.9°F-7.3°C 69% Calm Calm -- 29.81 in1009.5 mb - 0.00 in0.0 mm 0.00 in0.0 mm
01:02 AM 27.7°F-2.4°C 18.9°F-7.3°C 69% Calm Calm -- 29.81 in1009.5 mb - 0.00 in0.0 mm 0.00 in0.0 mm
12:57 AM 27.9°F-2.3°C 19.0°F-7.2°C 69% Calm Calm -- 29.81 in1009.5 mb - 0.00 in0.0 mm 0.00 in0.0 mm
12:52 AM 27.7°F-2.4°C 18.9°F-7.3°C 69% Calm Calm -- 29.81 in1009.5 mb - 0.00 in0.0 mm 0.00 in0.0 mm
12:47 AM 27.7°F-2.4°C 18.9°F-7.3°C 69% Calm Calm -- 29.81 in1009.5 mb - 0.00 in0.0 mm 0.00 in0.0 mm
12:42 AM 27.9°F-2.3°C 19.0°F-7.2°C 69% Calm Calm -- 29.81 in1009.5 mb - 0.00 in0.0 mm 0.00 in0.0 mm
12:37 AM 27.9°F-2.3°C 18.7°F-7.4°C 68% Calm Calm -- 29.81 in1009.5 mb - 0.00 in0.0 mm 0.00 in0.0 mm
12:32 AM 27.9°F-2.3°C 18.3°F-7.6°C 67% Calm Calm -- 29.81 in1009.5 mb - 0.00 in0.0 mm 0.00 in0.0 mm
12:27 AM 27.9°F-2.3°C 18.3°F-7.6°C 67% Calm Calm -- 29.81 in1009.5 mb - 0.00 in0.0 mm 0.00 in0.0 mm
12:22 AM 28.0°F-2.2°C 18.5°F-7.5°C 67% Calm Calm -- 29.81 in1009.5 mb - 0.00 in0.0 mm 0.00 in0.0 mm
12:17 AM 28.0°F-2.2°C 18.5°F-7.5°C 67% Calm Calm -- 29.81 in1009.5 mb - 0.00 in0.0 mm 0.00 in0.0 mm
12:12 AM 28.0°F-2.2°C 18.5°F-7.5°C 67% Calm Calm -- 29.81 in1009.5 mb - 0.00 in0.0 mm 0.00 in0.0 mm
12:07 AM 28.2°F-2.1°C 18.3°F-7.6°C 66% Calm Calm -- 29.81 in1009.5 mb - 0.00 in0.0 mm 0.00 in0.0 mm
12:02 AM 28.2°F-2.1°C 18.3°F-7.6°C 66% Calm Calm -- 29.81 in1009.5 mb - 0.00 in0.0 mm 0.00 in0.0 mm